This is the latest recevied weather packets stored in our database for station/object F4ELU-13. If no packets are shown the sender has not sent any weather packets the latest 10 day(s).
| Time | Temp. | Humidity | Pressure | Rain* | Wind** | Luminosity | Snow |
|---|---|---|---|---|---|---|---|
| 1777699083 | 10.56° C | 97% | 1020.3 hPa | 0 mm | - | - | - |
| 1777698543 | 10.56° C | 99% | 1020.3 hPa | 0 mm | - | - | - |
| 1777698003 | 10° C | 99% | 1020.3 hPa | 0 mm | - | - | - |
| 1777697643 | 9.44° C | 99% | 1020.2 hPa | 0 mm | - | - | - |
| 1777697104 | 8.89° C | 99% | 1020.1 hPa | 0 mm | - | - | - |
| 1777696563 | 9.44° C | 99% | 1020.3 hPa | 0 mm | - | - | - |
| 1777696023 | 9.44° C | 99% | 1020.3 hPa | 0 mm | - | - | - |
| 1777695484 | 9.44° C | 99% | 1020.2 hPa | 0 mm | - | - | - |
| 1777694943 | 9.44° C | 98% | 1020.2 hPa | 0 mm | - | - | - |
| 1777694403 | 9.44° C | 97% | 1020.1 hPa | 0 mm | - | - | - |
| 1777694043 | 10° C | 97% | 1020.4 hPa | 0 mm | - | - | - |
| 1777693504 | 10° C | 97% | 1020.3 hPa | 0 mm | - | - | - |
| 1777692963 | 10° C | 96% | 1020.3 hPa | 0 mm | - | - | - |
| 1777692423 | 10.56° C | 96% | 1020.4 hPa | 0 mm | - | - | - |
| 1777691884 | 10.56° C | 95% | 1020.4 hPa | 0 mm | - | - | - |
| 1777691343 | 10.56° C | 95% | 1020.5 hPa | 0 mm | - | - | - |
| 1777690803 | 11.11° C | 94% | 1020.6 hPa | 0 mm | - | - | - |
| 1777690443 | 11.11° C | 94% | 1020.6 hPa | 0 mm | - | - | - |
| 1777689903 | 11.11° C | 94% | 1020.6 hPa | 0 mm | - | - | - |
| 1777689363 | 11.11° C | 94% | 1020.6 hPa | 0 mm | - | - | - |
| 1777688823 | 11.67° C | 93% | 1020.6 hPa | 0 mm | - | - | - |
| 1777688283 | 11.67° C | 92% | 1020.6 hPa | 0 mm | - | - | - |
| 1777687743 | 12.22° C | 91% | 1020.5 hPa | 0 mm | - | - | - |
| 1777687203 | 12.22° C | 92% | 1020.6 hPa | 0 mm | - | - | - |
| 1777686844 | 12.22° C | 91% | 1020.6 hPa | 0 mm | - | - | - |
* Rain latest hour (hover to see other rain measurements)
** Current wind speed in m/s (hover to see current wind gust speed)